Time;durP1;ratioP1;P1;durP2;ratioP2;P2;SDS_P1;SDS_P2;PMS_P1;PMS_P2;Temp;Humidity;BMP_temperature;BMP_pressure;BME280_temperature;BME280_humidity;BME280_pressure;Samples;Min_cycle;Max_cycle;Signal;HPM_P1;HPM_P2
2022/04/06 00:00:18;;;;;;;25.60;2.00;;;;;;;19.70;48.86;98133.72;7313232;19;154318;-41
2022/04/06 00:02:44;;;;;;;14.90;1.10;;;;;;;19.64;49.74;98136.94;7314023;19;158379;-32
2022/04/06 00:05:10;;;;;;;23.30;2.03;;;;;;;19.66;50.14;98135.00;7313321;19;129757;-34
2022/04/06 00:07:36;;;;;;;39.77;3.43;;;;;;;19.61;51.05;98145.09;7314611;19;138430;-35
2022/04/06 00:10:03;;;;;;;26.08;2.25;;;;;;;19.62;50.77;98131.09;7312280;19;129095;-38
2022/04/06 00:12:28;;;;;;;25.60;2.08;;;;;;;19.63;51.18;98132.72;7313198;19;132257;-34
2022/04/06 00:14:53;;;;;;;9.80;0.87;;;;;;;19.63;51.09;98130.94;7310164;19;158566;-39
2022/04/06 00:17:19;;;;;;;17.10;1.30;;;;;;;19.65;51.58;98133.38;7311061;19;155051;-33
2022/04/06 00:19:44;;;;;;;20.90;1.67;;;;;;;19.61;51.33;98127.66;7312754;19;153975;-36
2022/04/06 00:22:09;;;;;;;36.17;2.77;;;;;;;19.63;51.27;98119.69;7313098;19;157195;-28
2022/04/06 00:24:35;;;;;;;23.42;1.80;;;;;;;19.40;50.25;98125.53;7310761;19;159183;-32
2022/04/06 00:27:00;;;;;;;29.58;2.55;;;;;;;19.30;50.09;98130.06;7313375;19;142048;-36
2022/04/06 00:29:25;;;;;;;26.42;2.15;;;;;;;19.27;49.65;98130.34;7311987;19;130135;-33
2022/04/06 00:31:51;;;;;;;21.88;1.75;;;;;;;19.33;49.46;98145.41;7313282;19;158326;-33
2022/04/06 00:34:16;;;;;;;21.27;1.67;;;;;;;19.35;48.94;98140.81;7313742;19;134810;-34
2022/04/06 00:36:41;;;;;;;19.25;1.42;;;;;;;19.39;49.34;98149.13;7314065;19;129009;-34
2022/04/06 00:39:07;;;;;;;24.33;1.77;;;;;;;19.40;48.68;98148.97;7313266;19;143962;-38
2022/04/06 00:41:32;;;;;;;22.58;1.83;;;;;;;19.43;48.41;98143.47;7313664;19;129695;-31
2022/04/06 00:44:14;;;;;;;20.52;1.77;;;;;;;19.36;49.06;98124.22;7312906;19;130105;-31
2022/04/06 00:46:40;;;;;;;24.15;2.17;;;;;;;19.42;48.76;98138.38;7306801;19;129162;-32
2022/04/06 00:49:11;;;;;;;15.30;1.13;;;;;;;19.48;48.44;98148.97;7312997;19;129019;-33
2022/04/06 00:51:37;;;;;;;28.98;2.40;;;;;;;19.49;48.73;98147.19;7312059;19;130271;-31
2022/04/06 00:54:03;;;;;;;23.77;1.77;;;;;;;19.36;48.80;98129.44;7309750;19;130153;-39
2022/04/06 00:56:28;;;;;;;33.33;2.50;;;;;;;19.48;48.32;98151.59;7312268;19;129691;-39
2022/04/06 00:58:54;;;;;;;37.73;3.00;;;;;;;19.40;48.95;98130.72;7311720;19;148224;-34
2022/04/06 01:01:19;;;;;;;18.80;1.40;;;;;;;19.50;48.73;98145.41;7311661;19;158498;-32
2022/04/06 01:03:44;;;;;;;14.70;1.23;;;;;;;19.50;48.16;98150.63;7311358;19;159410;-33
2022/04/06 01:06:09;;;;;;;20.37;1.57;;;;;;;19.39;48.36;98133.50;7311924;19;154321;-34
2022/04/06 01:08:35;;;;;;;34.93;2.83;;;;;;;19.48;48.17;98151.59;7311053;19;147293;-36
2022/04/06 01:11:00;;;;;;;27.83;2.07;;;;;;;19.40;48.07;98130.72;7311325;19;158641;-36
2022/04/06 01:13:27;;;;;;;24.63;1.92;;;;;;;19.51;47.96;98160.06;7311407;19;157240;-33
2022/04/06 01:15:53;;;;;;;22.83;1.73;;;;;;;19.53;48.27;98152.91;7312749;19;128797;-36
2022/04/06 01:18:18;;;;;;;27.42;2.00;;;;;;;19.53;47.93;98145.09;7311662;19;131832;-32
2022/04/06 01:20:43;;;;;;;20.90;1.67;;;;;;;19.52;48.38;98136.44;7311445;19;145673;-31
2022/04/06 01:23:09;;;;;;;18.90;1.47;;;;;;;19.64;48.91;98142.16;7310511;19;159612;-35
2022/04/06 01:25:38;;;;;;;32.75;2.90;;;;;;;19.72;48.62;98142.19;7311056;19;130378;-38
2022/04/06 01:28:03;;;;;;;18.05;1.40;;;;;;;19.67;49.40;98141.84;7311636;19;129333;-33
2022/04/06 01:30:28;;;;;;;22.42;1.65;;;;;;;19.66;49.64;98142.81;7309055;19;130032;-36
2022/04/06 01:32:58;;;;;;;17.48;1.30;;;;;;;19.64;50.13;98149.97;7311645;19;159007;-33
2022/04/06 01:35:24;;;;;;;45.58;3.80;;;;;;;19.64;51.10;98153.41;7308110;19;130172;-35
2022/04/06 01:37:49;;;;;;;20.83;1.70;;;;;;;19.65;50.67;98154.22;7312827;19;128872;-29
2022/04/06 01:40:15;;;;;;;21.80;1.53;;;;;;;19.56;50.91;98142.16;7309761;19;158490;-33
2022/04/06 01:42:40;;;;;;;21.27;1.73;;;;;;;19.65;51.39;98154.22;7312414;19;130996;-32
2022/04/06 01:45:06;;;;;;;14.82;1.23;;;;;;;19.63;51.72;98157.00;7310327;19;129235;-35
2022/04/06 01:47:31;;;;;;;53.53;4.25;;;;;;;19.65;51.09;98156.84;7309584;19;129514;-31
2022/04/06 01:52:40;;;;;;;30.50;2.35;;;;;;;19.31;50.23;98156.94;7310884;19;129246;-35
2022/04/06 01:55:09;;;;;;;9.68;0.80;;;;;;;19.33;49.86;98155.81;7308492;19;154624;-32
2022/04/06 01:57:34;;;;;;;36.60;2.95;;;;;;;19.35;49.63;98151.25;7313169;19;129838;-38
2022/04/06 02:00:00;;;;;;;20.85;1.50;;;;;;;19.26;48.92;98133.94;7318189;19;130067;-27
2022/04/06 02:02:28;;;;;;;24.23;1.92;;;;;;;19.36;49.34;98144.25;7317852;19;129135;-36
2022/04/06 02:04:53;;;;;;;29.63;2.33;;;;;;;19.42;49.05;98147.03;7314877;19;130531;-42
2022/04/06 02:07:19;;;;;;;17.27;1.40;;;;;;;19.43;49.11;98143.47;7316815;19;145659;-40
2022/04/06 02:09:44;;;;;;;19.17;1.42;;;;;;;19.46;48.46;98139.72;7318152;19;131022;-39
2022/04/06 02:12:11;;;;;;;12.40;1.00;;;;;;;19.45;48.44;98144.09;7315685;19;158611;-37
2022/04/06 02:14:38;;;;;;;23.00;1.75;;;;;;;19.44;48.35;98145.09;7317224;19;128886;-40
2022/04/06 02:17:07;;;;;;;;;;;;;;;19.45;48.32;98138.09;7317462;19;128838;-40
2022/04/06 02:19:34;;;;;;;28.35;2.13;;;;;;;19.47;48.54;98145.75;7318420;19;130997;-39
2022/04/06 02:21:59;;;;;;;24.38;1.95;;;;;;;19.47;48.80;98140.53;7318620;19;130620;-38
2022/04/06 02:24:24;;;;;;;26.37;2.03;;;;;;;19.47;48.51;98137.94;7314815;19;155314;-37
2022/04/06 02:26:50;;;;;;;19.93;1.40;;;;;;;19.45;48.29;98141.50;7315462;19;154085;-36
2022/04/06 02:29:15;;;;;;;22.77;1.70;;;;;;;19.48;48.29;98143.78;7316084;19;129204;-40
2022/04/06 02:31:41;;;;;;;34.75;2.70;;;;;;;19.48;48.52;98133.34;7317591;19;131335;-35
2022/04/06 02:34:07;;;;;;;11.52;1.17;;;;;;;19.50;48.91;98135.00;7316564;19;130989;-40
2022/04/06 02:36:32;;;;;;;22.88;1.85;;;;;;;19.72;48.88;98136.97;7316791;19;130198;-41
2022/04/06 02:38:57;;;;;;;4.43;0.50;;;;;;;19.67;48.73;98134.81;7316475;19;158609;-39
2022/04/06 02:41:22;;;;;;;20.52;1.50;;;;;;;19.63;49.74;98133.53;7317629;19;130348;-41
2022/04/06 02:43:48;;;;;;;18.73;1.43;;;;;;;19.55;50.22;98127.50;7315428;19;155089;-38
2022/04/06 02:46:13;;;;;;;27.38;2.10;;;;;;;19.62;50.59;98138.91;7315187;19;154219;-40
2022/04/06 02:48:39;;;;;;;25.02;1.90;;;;;;;19.67;50.81;98139.25;7316116;19;130176;-41
2022/04/06 02:51:04;;;;;;;17.77;1.33;;;;;;;19.65;51.27;98138.59;7316730;19;130561;-40
2022/04/06 02:53:29;;;;;;;19.63;1.50;;;;;;;19.69;50.99;98145.91;7312533;19;154689;-39
2022/04/06 02:55:54;;;;;;;16.17;1.23;;;;;;;19.63;51.00;98136.16;7315903;19;154944;-39
2022/04/06 02:58:20;;;;;;;17.65;1.50;;;;;;;19.55;51.13;98117.06;7316856;19;130163;-39
2022/04/06 03:00:45;;;;;;;25.10;1.75;;;;;;;19.65;51.42;98139.38;7314524;19;150858;-40
2022/04/06 03:03:10;;;;;;;29.50;2.28;;;;;;;19.39;49.73;98134.31;7315030;19;129035;-40
2022/04/06 03:05:35;;;;;;;30.77;2.55;;;;;;;19.34;49.35;98135.78;7313433;19;154322;-40
2022/04/06 03:08:01;;;;;;;20.73;1.55;;;;;;;19.33;48.99;98140.19;7316176;19;131118;-39
2022/04/06 03:10:26;;;;;;;20.53;1.57;;;;;;;19.27;49.29;98122.53;7311851;19;158845;-40
2022/04/06 03:12:52;;;;;;;11.65;0.93;;;;;;;19.38;48.91;98137.91;7315770;19;128781;-40
2022/04/06 03:15:18;;;;;;;27.47;2.20;;;;;;;19.39;48.82;98134.31;7313558;19;129170;-39
2022/04/06 03:17:43;;;;;;;16.83;1.30;;;;;;;19.41;49.07;98136.78;7315877;19;131148;-37
2022/04/06 03:20:13;;;;;;;17.15;1.35;;;;;;;19.44;48.49;98129.44;7314579;19;142741;-38
2022/04/06 03:22:38;;;;;;;25.08;1.95;;;;;;;19.44;48.98;98132.06;7316920;19;128997;-38
2022/04/06 03:25:04;;;;;;;26.25;2.15;;;;;;;19.43;48.70;98138.25;7314375;19;130482;-41
2022/04/06 03:27:29;;;;;;;9.35;0.93;;;;;;;19.43;48.95;98129.63;7315852;19;130648;-41
2022/04/06 03:29:54;;;;;;;22.77;1.83;;;;;;;19.45;48.13;98128.47;7312205;19;158840;-40
2022/04/06 03:32:20;;;;;;;27.33;2.05;;;;;;;19.43;48.53;98138.25;7313653;19;154493;-40
2022/04/06 03:34:45;;;;;;;28.87;2.47;;;;;;;19.47;48.81;98127.50;7313290;19;155024;-38
2022/04/06 03:37:10;;;;;;;20.20;1.43;;;;;;;19.40;48.54;98120.31;7312708;19;159263;-38
2022/04/06 03:39:35;;;;;;;26.40;1.97;;;;;;;19.46;48.59;98124.06;7313148;19;158347;-38
2022/04/06 03:42:01;;;;;;;21.42;1.67;;;;;;;19.69;48.57;98126.84;7313925;19;148078;-41
2022/04/06 03:44:26;;;;;;;25.05;1.98;;;;;;;19.68;49.42;98125.22;7313482;19;154156;-35
2022/04/06 03:46:53;;;;;;;36.55;3.10;;;;;;;19.62;50.10;98128.50;7314071;19;129486;-34
2022/04/06 03:49:18;;;;;;;;;;;;;;;19.61;51.03;98119.84;7313777;19;129557;-37
2022/04/06 03:51:43;;;;;;;13.93;1.27;;;;;;;19.64;50.60;98116.91;7315194;19;130218;-35
2022/04/06 03:54:09;;;;;;;18.40;1.50;;;;;;;19.64;50.55;98122.13;7312307;19;154177;-40
2022/04/06 03:56:34;;;;;;;44.37;3.73;;;;;;;19.65;50.18;98122.94;7312861;19;159155;-33
2022/04/06 03:58:59;;;;;;;25.90;1.98;;;;;;;19.67;50.37;98121.00;7314900;19;130217;-36
2022/04/06 04:01:24;;;;;;;25.93;1.97;;;;;;;19.61;52.23;98125.06;7312798;19;143454;-35
2022/04/06 04:03:50;;;;;;;17.83;1.57;;;;;;;19.60;51.31;98114.81;7312103;19;156363;-31
2022/04/06 04:06:15;;;;;;;16.65;1.25;;;;;;;19.57;52.50;98120.34;7314785;19;132218;-39
2022/04/06 04:08:40;;;;;;;26.05;2.13;;;;;;;19.46;50.31;98129.28;7313282;19;130220;-34
2022/04/06 04:11:07;;;;;;;16.50;1.25;;;;;;;19.28;50.10;98137.22;7313948;19;129157;-34
2022/04/06 04:13:32;;;;;;;22.85;1.98;;;;;;;19.31;49.37;98136.94;7314121;19;129779;-38
2022/04/06 04:15:58;;;;;;;22.92;1.73;;;;;;;19.32;49.47;98135.94;7314624;19;131488;-38
2022/04/06 04:18:23;;;;;;;29.65;2.33;;;;;;;19.33;48.85;98134.16;7313783;19;129585;-32
2022/04/06 04:20:48;;;;;;;23.83;2.08;;;;;;;19.37;49.16;98131.06;7309623;19;130507;-33
2022/04/06 04:23:14;;;;;;;25.80;1.90;;;;;;;19.41;48.78;98132.38;7312304;19;154163;-38
2022/04/06 04:25:39;;;;;;;35.60;2.70;;;;;;;19.29;48.34;98107.59;7308797;19;158205;-30
2022/04/06 04:28:05;;;;;;;24.90;1.85;;;;;;;19.43;48.32;98122.63;7313929;19;129731;-35
2022/04/06 04:30:31;;;;;;;28.13;2.20;;;;;;;19.42;48.40;98126.19;7312222;19;129301;-35
2022/04/06 04:32:56;;;;;;;17.20;1.33;;;;;;;19.43;48.62;98125.22;7314121;19;128996;-32
2022/04/06 04:35:21;;;;;;;65.90;5.07;;;;;;;19.42;48.77;98134.00;7309163;19;159036;-37
2022/04/06 04:37:47;;;;;;;33.17;2.47;;;;;;;19.36;48.68;98120.81;7311786;19;129722;-33
2022/04/06 04:40:12;;;;;;;9.73;0.77;;;;;;;19.44;48.35;98126.03;7312482;19;148270;-40
2022/04/06 04:42:37;;;;;;;40.17;3.17;;;;;;;19.46;48.26;98139.72;7311015;19;130609;-32
2022/04/06 04:45:04;;;;;;;27.75;2.13;;;;;;;19.47;48.11;98130.91;7311581;19;129201;-35
2022/04/06 04:47:30;;;;;;;29.80;2.30;;;;;;;19.37;48.40;98118.03;7312826;19;129973;-32
2022/04/06 04:49:56;;;;;;;29.63;2.47;;;;;;;19.48;48.54;98131.72;7312241;19;128911;-36
2022/04/06 04:52:21;;;;;;;33.95;2.55;;;;;;;19.50;48.02;98132.38;7311794;19;129352;-35
2022/04/06 04:54:47;;;;;;;21.40;1.60;;;;;;;19.63;48.35;98117.06;7311864;19;130680;-37
2022/04/06 04:57:12;;;;;;;34.95;2.80;;;;;;;19.65;49.25;98126.34;7310952;19;158228;-33
2022/04/06 04:59:37;;;;;;;41.53;3.03;;;;;;;19.66;49.88;98129.78;7312393;19;154530;-34
2022/04/06 05:02:03;;;;;;;37.08;3.00;;;;;;;19.64;50.13;98131.72;7313170;19;140435;-35
2022/04/06 05:04:28;;;;;;;39.67;3.35;;;;;;;19.64;50.56;98129.94;7310265;19;130855;-34
2022/04/06 05:06:53;;;;;;;19.23;1.50;;;;;;;19.63;50.68;98132.72;7310648;19;157823;-37
2022/04/06 05:09:18;;;;;;;17.77;1.30;;;;;;;19.65;51.39;98136.78;7311525;19;154414;-35
2022/04/06 05:11:44;;;;;;;26.02;1.80;;;;;;;19.65;51.01;98133.38;7311831;19;129342;-33
2022/04/06 05:14:09;;;;;;;21.02;1.67;;;;;;;19.65;51.50;98138.59;7312175;19;131433;-37
2022/04/06 05:16:35;;;;;;;37.00;3.00;;;;;;;19.65;50.71;98133.38;7310200;19;130315;-35
2022/04/06 05:19:01;;;;;;;17.33;1.33;;;;;;;19.66;51.03;98135.00;7311162;19;128902;-35
2022/04/06 05:21:26;;;;;;;40.08;3.17;;;;;;;19.41;50.08;98147.19;7309708;19;128980;-33
2022/04/06 05:23:51;;;;;;;22.80;1.70;;;;;;;19.29;49.39;98141.47;7310402;19;130949;-39
2022/04/06 05:26:17;;;;;;;24.58;1.80;;;;;;;19.31;49.82;98147.34;7311131;19;147888;-38
2022/04/06 05:28:42;;;;;;;54.07;3.47;;;;;;;19.30;48.92;98145.69;7306503;19;154550;-35
2022/04/06 05:31:07;;;;;;;21.75;1.67;;;;;;;19.34;49.28;98157.44;7305409;19;153974;-31
2022/04/06 05:33:32;;;;;;;50.47;3.57;;;;;;;19.36;48.74;98150.28;7314502;19;158802;-29
2022/04/06 05:35:58;;;;;;;25.70;2.15;;;;;;;19.37;48.61;98157.13;7316361;19;158615;-40
2022/04/06 05:38:23;;;;;;;19.87;1.40;;;;;;;19.36;48.62;98155.50;7317779;19;156764;-35
2022/04/06 05:40:48;;;;;;;31.75;2.35;;;;;;;19.32;49.02;98138.53;7319231;19;128676;-38
2022/04/06 05:43:14;;;;;;;17.45;1.30;;;;;;;19.42;48.76;98165.28;7318577;19;130097;-32
2022/04/06 05:45:39;;;;;;;24.70;1.88;;;;;;;19.43;48.52;98166.91;7318804;19;129496;-37
2022/04/06 05:48:05;;;;;;;27.73;2.22;;;;;;;19.45;48.31;98170.16;7316486;19;129076;-39
2022/04/06 05:50:31;;;;;;;28.43;2.17;;;;;;;19.45;48.57;98170.16;7316551;19;129167;-36
2022/04/06 05:52:56;;;;;;;18.35;1.38;;;;;;;19.47;48.62;98177.81;7317135;19;138020;-31
2022/04/06 05:55:21;;;;;;;39.42;3.30;;;;;;;19.50;48.48;98174.91;7317450;19;130420;-32
2022/04/06 05:57:46;;;;;;;32.77;2.27;;;;;;;19.50;48.28;98177.53;7314691;19;155459;-44
2022/04/06 06:00:13;;;;;;;17.97;1.30;;;;;;;19.51;48.36;98183.53;7317412;19;153941;-34
2022/04/06 06:02:38;;;;;;;30.27;2.23;;;;;;;19.49;47.95;98188.91;7315376;19;130912;-37
2022/04/06 06:05:05;;;;;;;16.25;1.20;;;;;;;19.51;48.18;98184.34;7316148;19;158194;-39
2022/04/06 06:07:30;;;;;;;24.95;1.85;;;;;;;19.74;48.74;98182.75;7317594;19;129387;-35
2022/04/06 06:09:56;;;;;;;18.85;1.30;;;;;;;19.81;50.00;98190.75;7314736;19;154127;-35
2022/04/06 06:12:21;;;;;;;148.43;12.10;;;;;;;19.73;50.60;98201.16;7305649;19;130167;-37
2022/04/06 06:14:47;;;;;;;24.33;1.95;;;;;;;19.65;51.11;98198.56;7306371;19;130007;-40
2022/04/06 06:17:12;;;;;;;40.53;3.85;;;;;;;19.67;50.74;98207.03;7315034;19;154533;-37
2022/04/06 06:19:37;;;;;;;59.40;4.70;;;;;;;19.64;51.19;98200.34;7313938;19;154335;-40
2022/04/06 06:22:04;;;;;;;25.98;2.03;;;;;;;19.67;51.63;98209.66;7316148;19;158194;-40
2022/04/06 06:24:29;;;;;;;22.33;1.80;;;;;;;19.67;51.72;98209.66;7316656;19;130408;-41
2022/04/06 06:26:55;;;;;;;26.83;2.25;;;;;;;19.67;52.50;98209.66;7316038;19;129042;-41
2022/04/06 06:29:21;;;;;;;32.67;2.50;;;;;;;19.55;52.07;98195.28;7318262;19;129391;-41
2022/04/06 06:31:46;;;;;;;24.20;2.27;;;;;;;19.57;51.22;98201.16;7316334;19;129152;-33
2022/04/06 06:34:12;;;;;;;17.60;1.70;;;;;;;19.37;49.77;98204.03;7315943;19;158661;-40
2022/04/06 06:36:37;;;;;;;24.58;1.85;;;;;;;19.40;49.59;98214.13;7314594;19;129247;-36
2022/04/06 06:39:03;;;;;;;21.15;1.92;;;;;;;19.40;49.56;98206.31;7318520;19;128941;-33
2022/04/06 06:41:29;;;;;;;27.92;2.35;;;;;;;19.44;49.22;98199.81;7318321;19;129503;-35
2022/04/06 06:43:56;;;;;;;17.77;1.35;;;;;;;19.44;48.63;98206.81;7315627;19;130563;-35
2022/04/06 06:46:22;;;;;;;25.75;2.17;;;;;;;19.45;48.58;98216.28;7315922;19;129204;-41
2022/04/06 06:48:48;;;;;;;33.78;2.67;;;;;;;19.48;48.73;98212.53;7317534;19;129157;-36
2022/04/06 06:51:15;;;;;;;20.93;1.77;;;;;;;19.48;48.89;98211.53;7314173;19;130477;-35
2022/04/06 06:53:40;;;;;;;;;;;;;;;19.40;48.52;98202.91;7315528;19;130797;-36
2022/04/06 06:56:06;;;;;;;26.98;1.98;;;;;;;19.53;48.61;98229.31;7311515;19;129078;-36
2022/04/06 06:58:31;;;;;;;40.47;2.92;;;;;;;19.44;48.17;98205.03;7311209;19;130539;-36
2022/04/06 07:00:56;;;;;;;42.50;3.15;;;;;;;19.51;47.99;98226.06;7312471;19;129443;-35
2022/04/06 07:03:22;;;;;;;37.67;2.83;;;;;;;19.52;47.99;98232.88;7313683;19;134988;-33
2022/04/06 07:05:48;;;;;;;27.50;2.20;;;;;;;19.55;48.56;98226.56;7317177;19;129131;-34
2022/04/06 07:08:14;;;;;;;27.08;2.22;;;;;;;19.57;48.33;98222.00;7316864;19;129194;-36
2022/04/06 07:10:47;;;;;;;21.38;1.67;;;;;;;19.56;48.35;98212.53;7314425;19;130764;-40
2022/04/06 07:13:15;;;;;;;19.75;1.75;;;;;;;19.50;47.99;98192.34;7316593;19;129905;-37
2022/04/06 07:15:40;;;;;;;32.38;2.58;;;;;;;19.73;47.90;98186.34;7315168;19;129195;-34
2022/04/06 07:18:07;;;;;;;23.05;1.88;;;;;;;19.75;48.63;98186.19;7318151;19;129806;-32
2022/04/06 07:20:35;;;;;;;12.15;1.20;;;;;;;19.67;49.66;98194.00;7316034;19;130297;-31
2022/04/06 07:23:01;;;;;;;21.20;1.73;;;;;;;19.65;50.28;98183.69;7316457;19;130396;-34
2022/04/06 07:25:26;;;;;;;41.70;3.35;;;;;;;19.66;50.56;98182.75;7313662;19;129214;-33
2022/04/06 07:27:51;;;;;;;28.33;2.40;;;;;;;19.67;50.33;98188.78;7315847;19;129019;-39
2022/04/06 07:30:17;;;;;;;28.37;2.17;;;;;;;19.67;51.16;98178.34;7315786;19;158409;-36
2022/04/06 07:32:42;;;;;;;22.55;1.83;;;;;;;19.69;50.77;98181.59;7315254;19;130460;-42
2022/04/06 07:35:08;;;;;;;21.33;1.60;;;;;;;19.67;51.35;98178.34;7312940;19;144796;-35
2022/04/06 07:37:38;;;;;;;18.92;1.60;;;;;;;19.66;52.32;98177.53;7315676;19;129742;-40
2022/04/06 07:40:04;;;;;;;23.98;1.80;;;;;;;19.64;51.87;98176.03;7315564;19;129877;-36
2022/04/06 07:42:30;;;;;;;34.13;3.03;;;;;;;19.56;50.26;98176.03;7314937;19;130228;-37
2022/04/06 07:44:56;;;;;;;15.20;1.27;;;;;;;19.44;49.80;98178.97;7312785;19;148178;-38
2022/04/06 07:47:21;;;;;;;21.57;1.63;;;;;;;19.43;49.32;98179.13;7315980;19;128945;-40
2022/04/06 07:49:46;;;;;;;18.40;1.42;;;;;;;19.39;49.22;98181.22;7315667;19;130131;-40
2022/04/06 07:52:12;;;;;;;19.52;1.50;;;;;;;19.40;49.31;98180.25;7310700;19;159210;-38
2022/04/06 07:54:37;;;;;;;37.47;2.70;;;;;;;19.43;48.54;98172.13;7313042;19;130201;-37
2022/04/06 07:57:02;;;;;;;27.45;2.05;;;;;;;19.47;48.72;98182.22;7314093;19;129553;-38
2022/04/06 07:59:27;;;;;;;12.18;1.05;;;;;;;19.50;48.54;98174.91;7315238;19;131275;-38
2022/04/06 08:01:53;;;;;;;31.53;2.47;;;;;;;19.48;48.90;98180.25;7313136;19;158456;-37
2022/04/06 08:04:18;;;;;;;17.10;1.37;;;;;;;19.49;48.46;98170.66;7313351;19;154811;-39
2022/04/06 08:06:43;;;;;;;31.03;2.33;;;;;;;19.53;48.01;98176.38;7313859;19;154723;-38
2022/04/06 08:09:09;;;;;;;20.97;1.57;;;;;;;19.53;48.15;98158.13;7314684;19;158143;-39
2022/04/06 08:11:34;;;;;;;11.77;1.13;;;;;;;19.50;48.66;98148.03;7313082;19;131180;-40
2022/04/06 08:13:59;;;;;;;20.17;1.57;;;;;;;19.47;48.12;98145.75;7312747;19;154801;-40
2022/04/06 08:16:24;;;;;;;37.43;3.03;;;;;;;19.54;48.04;98154.53;7313062;19;153667;-40
2022/04/06 08:18:50;;;;;;;18.07;1.30;;;;;;;19.54;48.25;98152.75;7314065;19;159433;-39
2022/04/06 08:21:15;;;;;;;27.90;2.00;;;;;;;19.54;48.31;98157.13;7309690;19;158392;-39
2022/04/06 08:23:40;;;;;;;12.02;0.90;;;;;;;19.54;48.42;98157.13;7315084;19;129100;-38
2022/04/06 08:26:06;;;;;;;18.13;1.40;;;;;;;19.55;47.90;98170.03;7311680;19;154674;-37
2022/04/06 08:28:31;;;;;;;28.40;2.30;;;;;;;19.63;48.46;98161.41;7312757;19;158373;-40
2022/04/06 08:30:56;;;;;;;23.03;1.70;;;;;;;19.77;48.07;98163.34;7311136;19;158933;-37
2022/04/06 08:33:21;;;;;;;21.53;1.60;;;;;;;19.66;49.21;98161.06;7311836;19;154511;-40
2022/04/06 08:35:47;;;;;;;20.95;1.55;;;;;;;19.66;49.20;98155.84;7310834;19;153955;-38
2022/04/06 08:38:15;;;;;;;27.67;1.98;;;;;;;19.66;50.54;98146.25;7315064;19;130464;-40
2022/04/06 08:40:42;;;;;;;17.15;1.63;;;;;;;19.69;50.49;98145.09;7313890;19;129156;-39
2022/04/06 08:43:08;;;;;;;20.10;1.55;;;;;;;19.71;50.42;98149.19;7311780;19;129333;-37
2022/04/06 08:45:36;;;;;;;37.07;2.93;;;;;;;19.67;50.64;98163.50;7310810;19;129442;-37
2022/04/06 08:48:04;;;;;;;65.53;5.32;;;;;;;19.68;50.98;98152.13;7302095;19;132295;-38
2022/04/06 08:50:30;;;;;;;19.38;1.55;;;;;;;19.70;51.25;98149.34;7311822;19;129272;-40
2022/04/06 08:52:57;;;;;;;16.45;1.35;;;;;;;19.69;51.66;98155.53;7307034;19;128939;-40
2022/04/06 08:55:23;;;;;;;41.42;3.47;;;;;;;19.43;49.34;98161.72;7309495;19;129430;-37
2022/04/06 08:57:48;;;;;;;34.65;2.50;;;;;;;19.33;49.20;98142.78;7308373;19;129589;-39
2022/04/06 09:00:16;;;;;;;22.48;1.80;;;;;;;19.42;48.93;98160.06;7313059;19;129211;-40
2022/04/06 09:02:41;;;;;;;29.05;2.45;;;;;;;19.45;48.64;98164.94;7312508;19;129865;-40
2022/04/06 09:05:09;;;;;;;24.75;2.03;;;;;;;19.45;48.89;98159.72;7310061;19;128860;-38
2022/04/06 09:07:35;;;;;;;23.98;1.88;;;;;;;19.48;48.62;98168.22;7314078;19;130146;-40
2022/04/06 09:10:00;;;;;;;29.38;2.35;;;;;;;19.38;48.38;98143.13;7319546;19;129248;-40
2022/04/06 09:12:26;;;;;;;13.82;1.13;;;;;;;19.48;48.59;98164.63;7318738;19;128827;-36
2022/04/06 09:15:11;;;;;;;18.35;1.30;;;;;;;19.39;48.50;98147.34;7318281;19;128850;-38
2022/04/06 09:17:47;;;;;;;22.73;1.67;;;;;;;19.52;48.18;98167.72;7318333;19;130126;-38
2022/04/06 09:20:14;;;;;;;42.65;3.50;;;;;;;19.56;48.21;98168.22;7319015;19;129702;-39
2022/04/06 09:22:39;;;;;;;;;;;;;;;19.53;48.10;98158.13;7319040;19;129032;-40
2022/04/06 09:25:05;;;;;;;27.90;2.07;;;;;;;19.51;48.41;98158.28;7317969;19;130505;-35
2022/04/06 09:27:32;;;;;;;25.50;1.98;;;;;;;19.57;48.49;98149.03;7317705;19;129972;-40
2022/04/06 09:29:58;;;;;;;16.10;1.25;;;;;;;19.54;47.91;98159.75;7317576;19;130325;-40
2022/04/06 09:32:23;;;;;;;20.27;1.58;;;;;;;19.55;48.49;98171.81;7318748;19;128996;-38
2022/04/06 09:34:49;;;;;;;17.85;1.23;;;;;;;19.54;48.41;98159.75;7314605;19;129128;-36
2022/04/06 09:37:30;;;;;;;32.90;2.55;;;;;;;19.58;48.13;98163.66;7315899;19;129941;-37
2022/04/06 09:39:58;;;;;;;16.35;1.23;;;;;;;19.57;48.21;98162.06;7318679;19;130380;-35
2022/04/06 09:42:25;;;;;;;10.48;0.93;;;;;;;19.71;48.55;98136.16;7318255;19;130321;-41
2022/04/06 09:47:53;;;;;;;22.75;1.85;;;;;;;19.71;50.08;98161.41;7318284;19;128831;-40
2022/04/06 09:50:23;;;;;;;23.63;1.80;;;;;;;19.71;50.71;98150.97;7315134;19;131297;-38
2022/04/06 09:52:51;;;;;;;8.13;0.80;;;;;;;19.70;50.39;98147.53;7318695;19;129289;-36
2022/04/06 09:55:18;;;;;;;23.88;1.92;;;;;;;19.71;50.30;98137.94;7315525;19;129608;-39
2022/04/06 09:57:51;;;;;;;33.50;2.72;;;;;;;19.58;52.13;98114.97;7315997;19;129311;-37
2022/04/06 10:00:19;;;;;;;19.98;1.65;;;;;;;19.72;50.53;98123.94;7315664;19;131023;-39
2022/04/06 10:02:48;;;;;;;30.38;2.55;;;;;;;19.69;51.85;98134.66;7316074;19;129043;-38
2022/04/06 10:05:17;;;;;;;47.67;3.83;;;;;;;19.69;51.23;98119.03;7311049;19;129057;-39
2022/04/06 10:07:43;;;;;;;29.17;2.35;;;;;;;19.70;51.13;98116.25;7316525;19;130137;-36
2022/04/06 10:10:08;;;;;;;18.33;1.77;;;;;;;19.35;49.18;98101.75;7315506;19;130378;-40
2022/04/06 10:12:35;;;;;;;44.30;3.53;;;;;;;19.42;49.71;98110.53;7315811;19;129369;-36
2022/04/06 10:15:00;;;;;;;35.27;2.67;;;;;;;19.43;49.29;98099.16;7313828;19;129013;-38
2022/04/06 10:17:28;;;;;;;29.52;2.33;;;;;;;19.43;48.84;98106.97;7314521;19;130197;-37
2022/04/06 10:20:06;;;;;;;24.75;1.85;;;;;;;19.47;49.11;98114.47;7315364;19;131082;-41
2022/04/06 10:22:43;;;;;;;24.25;2.05;;;;;;;19.36;48.73;98077.31;7316211;19;128828;-39
2022/04/06 10:25:16;;;;;;;40.67;3.27;;;;;;;19.48;48.69;98095.25;7313195;19;130688;-39
2022/04/06 10:27:53;;;;;;;14.00;1.27;;;;;;;19.50;48.57;98088.06;7315912;19;130180;-40
2022/04/06 10:30:22;;;;;;;20.63;1.60;;;;;;;19.52;48.21;98092.13;7313320;19;129252;-39
2022/04/06 10:32:49;;;;;;;17.05;1.20;;;;;;;19.54;48.74;98084.16;7315721;19;129150;-37
2022/04/06 10:35:22;;;;;;;24.98;1.95;;;;;;;19.54;48.18;98084.16;7314396;19;129014;-39
2022/04/06 10:38:11;;;;;;;22.00;1.55;;;;;;;19.51;47.95;98080.09;7316230;19;129490;-41
2022/04/06 10:40:42;;;;;;;23.48;1.85;;;;;;;19.56;48.01;98082.19;7314891;19;132069;-35
2022/04/06 10:43:34;;;;;;;27.55;2.10;;;;;;;19.46;48.11;98051.09;7314610;19;154491;-40
2022/04/06 10:46:00;;;;;;;39.33;3.17;;;;;;;19.58;47.90;98067.22;7313847;19;129118;-39
2022/04/06 10:48:26;;;;;;;22.85;1.88;;;;;;;19.58;48.10;98065.44;7314991;19;130795;-39
2022/04/06 10:50:51;;;;;;;26.80;2.35;;;;;;;19.58;48.40;98060.22;7311727;19;135680;-37
2022/04/06 10:53:22;;;;;;;22.35;1.70;;;;;;;19.58;47.77;98067.22;7314736;19;138442;-38
2022/04/06 10:56:06;;;;;;;65.15;5.00;;;;;;;19.59;47.45;98063.63;7314569;19;129220;-35
2022/04/06 10:58:56;;;;;;;26.27;2.17;;;;;;;19.74;48.78;98052.38;7314040;19;131200;-39
2022/04/06 11:01:26;;;;;;;17.67;1.38;;;;;;;19.76;49.24;98055.66;7313335;19;129777;-37
2022/04/06 11:03:58;;;;;;;19.17;1.50;;;;;;;19.69;49.69;98059.06;7314378;19;129212;-40
2022/04/06 11:07:00;;;;;;;18.05;1.40;;;;;;;19.74;50.57;98054.16;7316082;19;129067;-40
2022/04/06 11:12:30;;;;;;;24.60;1.90;;;;;;;19.72;51.59;98053.53;7314495;19;129746;-40
2022/04/06 11:14:58;;;;;;;15.73;1.23;;;;;;;19.69;51.67;98043.41;7314577;19;129057;-40
2022/04/06 11:17:34;;;;;;;17.15;1.20;;;;;;;19.70;51.55;98047.66;7314264;19;154106;-38
2022/04/06 11:20:09;;;;;;;8.60;0.80;;;;;;;19.69;51.67;98044.25;7314874;19;130164;-38
2022/04/06 11:22:38;;;;;;;13.00;1.13;;;;;;;19.71;50.98;98036.25;7317462;19;130786;-37
2022/04/06 11:25:07;;;;;;;27.70;2.25;;;;;;;19.44;49.69;98035.63;7313155;19;128991;-38